createdAt,value
2022-11-05T00:00:18.571Z,9.61
2022-11-05T00:03:03.808Z,9.62
2022-11-05T00:05:49.702Z,9.60
2022-11-05T00:08:34.740Z,9.60
2022-11-05T00:11:01.363Z,9.63
2022-11-05T00:13:46.828Z,9.59
2022-11-05T00:16:31.708Z,9.59
2022-11-05T00:19:06.971Z,9.57
2022-11-05T00:21:53.563Z,9.59
2022-11-05T00:24:44.561Z,9.63
2022-11-05T00:27:14.449Z,9.61
2022-11-05T00:29:40.941Z,9.62
2022-11-05T00:32:07.498Z,9.59
2022-11-05T00:34:33.955Z,9.58
2022-11-05T00:37:00.452Z,9.54
2022-11-05T00:39:26.923Z,9.52
2022-11-05T00:42:11.699Z,9.49
2022-11-05T00:44:56.679Z,9.46
2022-11-05T00:47:41.451Z,9.48
2022-11-05T00:50:13.428Z,9.46
2022-11-05T00:52:58.961Z,9.44
2022-11-05T00:55:33.472Z,9.39
2022-11-05T00:58:00.963Z,9.40
2022-11-05T01:00:29.744Z,9.40
2022-11-05T01:03:12.259Z,9.43
2022-11-05T01:05:44.462Z,9.47
2022-11-05T01:08:11.631Z,9.48
2022-11-05T01:10:47.338Z,9.47
2022-11-05T01:13:16.648Z,9.45
2022-11-05T01:15:43.990Z,9.46
2022-11-05T01:18:11.446Z,9.39
2022-11-05T01:20:38.485Z,9.39
2022-11-05T01:23:11.927Z,9.42
2022-11-05T01:25:40.302Z,9.38
2022-11-05T01:28:06.930Z,9.32
2022-11-05T01:30:33.410Z,9.34
2022-11-05T01:32:59.851Z,9.31
2022-11-05T01:35:30.898Z,9.32
2022-11-05T01:38:03.155Z,9.27
2022-11-05T01:40:32.926Z,9.25
2022-11-05T01:42:59.359Z,9.26
2022-11-05T01:45:30.990Z,9.25
2022-11-05T01:48:07.988Z,9.14
2022-11-05T01:51:06.332Z,9.14
2022-11-05T01:53:39.746Z,9.07
2022-11-05T01:56:17.544Z,9.11
2022-11-05T01:59:30.457Z,9.07
2022-11-05T02:01:57.545Z,9.07
2022-11-05T02:04:35.567Z,9.05
2022-11-05T02:07:04.864Z,9.03
2022-11-05T02:09:56.192Z,9.05
2022-11-05T02:12:23.909Z,8.94
2022-11-05T02:14:50.382Z,8.95
2022-11-05T02:17:29.477Z,9.00
2022-11-05T02:20:14.194Z,9.05
2022-11-05T02:23:01.982Z,8.97
2022-11-05T02:25:40.115Z,8.91
2022-11-05T02:28:31.320Z,8.90
2022-11-05T02:31:06.102Z,8.93
2022-11-05T02:33:56.703Z,8.93
2022-11-05T02:36:34.024Z,8.92
2022-11-05T02:39:11.174Z,8.85
2022-11-05T02:41:50.458Z,8.89
2022-11-05T02:44:44.202Z,8.84
2022-11-05T02:47:47.753Z,8.83
2022-11-05T02:50:45.131Z,8.82
2022-11-05T02:53:21.736Z,8.89
2022-11-05T02:56:01.284Z,8.86
2022-11-05T02:58:28.894Z,8.81
2022-11-05T03:00:56.556Z,8.78
2022-11-05T03:03:35.697Z,8.77
2022-11-05T03:06:45.936Z,8.77
2022-11-05T03:09:30.422Z,8.77
2022-11-05T03:12:22.785Z,8.71
2022-11-05T03:15:07.285Z,8.64
2022-11-05T03:17:38.935Z,8.67
2022-11-05T03:20:23.595Z,8.66
2022-11-05T03:23:14.810Z,8.64
2022-11-05T03:25:49.842Z,8.66
2022-11-05T03:28:20.024Z,8.73
2022-11-05T03:30:50.415Z,8.70
2022-11-05T03:33:25.400Z,8.73
2022-11-05T03:35:58.664Z,8.77
2022-11-05T03:38:32.527Z,8.70
2022-11-05T03:41:03.856Z,8.64
2022-11-05T03:43:35.417Z,8.59
2022-11-05T03:46:18.041Z,8.54
2022-11-05T03:48:49.149Z,8.63
2022-11-05T03:51:43.695Z,8.62
2022-11-05T03:54:10.867Z,8.56
2022-11-05T03:57:03.410Z,8.49
2022-11-05T03:59:32.981Z,8.39
2022-11-05T04:01:59.531Z,8.35
2022-11-05T04:04:26.193Z,8.29
2022-11-05T04:07:11.115Z,8.36
2022-11-05T04:09:55.935Z,8.24
2022-11-05T04:12:41.245Z,8.21
2022-11-05T04:15:08.436Z,8.27
2022-11-05T04:17:34.916Z,8.33
2022-11-05T04:20:20.344Z,8.25
2022-11-05T04:23:05.006Z,8.17
2022-11-05T04:25:31.502Z,8.16
2022-11-05T04:28:00.993Z,8.17
2022-11-05T04:30:27.760Z,8.22
2022-11-05T04:32:58.476Z,8.24
2022-11-05T04:35:26.359Z,8.16
2022-11-05T04:37:53.157Z,8.15
2022-11-05T04:40:19.627Z,8.19
2022-11-05T04:42:46.129Z,8.19
2022-11-05T04:45:12.682Z,8.19
2022-11-05T04:47:39.136Z,8.20
2022-11-05T04:50:05.986Z,8.19
2022-11-05T04:52:32.426Z,8.21
2022-11-05T04:54:58.886Z,8.22
2022-11-05T04:57:25.336Z,8.17
2022-11-05T04:59:52.153Z,8.17
2022-11-05T05:02:18.688Z,8.14
2022-11-05T05:04:45.154Z,8.10
2022-11-05T05:07:11.640Z,8.13
2022-11-05T05:09:38.135Z,8.14
2022-11-05T05:12:04.808Z,8.11
2022-11-05T05:14:31.309Z,8.10
2022-11-05T05:16:57.812Z,8.10
2022-11-05T05:19:25.006Z,8.13
2022-11-05T05:21:51.552Z,8.12
2022-11-05T05:24:21.038Z,8.12
2022-11-05T05:26:49.584Z,8.11
2022-11-05T05:29:19.570Z,8.09
2022-11-05T05:31:46.056Z,8.14
2022-11-05T05:34:14.277Z,8.17
2022-11-05T05:36:40.763Z,8.15
2022-11-05T05:39:11.135Z,8.09
2022-11-05T05:41:37.757Z,8.09
2022-11-05T05:44:05.328Z,8.11
2022-11-05T05:46:35.119Z,8.11
2022-11-05T05:49:01.570Z,8.13
2022-11-05T05:51:28.073Z,8.04
2022-11-05T05:53:54.913Z,8.07
2022-11-05T05:56:21.512Z,8.06
2022-11-05T05:58:48.098Z,8.08
2022-11-05T06:01:19.242Z,8.06
2022-11-05T06:03:46.534Z,8.04
2022-11-05T06:06:14.830Z,8.06
2022-11-05T06:08:42.208Z,8.02
2022-11-05T06:11:09.462Z,8.00
2022-11-05T06:13:37.226Z,7.95
2022-11-05T06:16:06.113Z,7.91
2022-11-05T06:18:33.763Z,7.95
2022-11-05T06:21:11.851Z,7.96
2022-11-05T06:23:42.895Z,7.94
2022-11-05T06:26:12.714Z,7.95
2022-11-05T06:28:39.292Z,7.91
2022-11-05T06:31:06.046Z,7.87
2022-11-05T06:33:32.554Z,7.89
2022-11-05T06:36:00.318Z,7.97
2022-11-05T06:38:27.147Z,8.03
2022-11-05T06:40:53.597Z,8.04
2022-11-05T06:43:20.059Z,8.05
2022-11-05T06:45:46.546Z,8.10
2022-11-05T06:48:13.040Z,8.09
2022-11-05T06:50:44.179Z,8.11
2022-11-05T06:53:11.097Z,8.11
2022-11-05T06:55:37.940Z,8.02
2022-11-05T06:58:04.606Z,8.06
2022-11-05T07:00:32.711Z,8.06
2022-11-05T07:03:07.143Z,8.09
2022-11-05T07:05:36.629Z,8.10
2022-11-05T07:08:06.391Z,8.12
2022-11-05T07:10:33.107Z,8.14
2022-11-05T07:13:02.505Z,8.18
2022-11-05T07:15:33.221Z,8.20
2022-11-05T07:18:00.975Z,8.23
2022-11-05T07:20:33.477Z,8.27
2022-11-05T07:23:05.594Z,8.28
2022-11-05T07:25:32.935Z,8.31
2022-11-05T07:28:00.358Z,8.32
2022-11-05T07:30:27.719Z,8.33
2022-11-05T07:32:54.340Z,8.30
2022-11-05T07:35:21.068Z,8.32
2022-11-05T07:37:49.526Z,8.40
2022-11-05T07:40:20.955Z,8.46
2022-11-05T07:42:50.141Z,8.55
2022-11-05T07:45:16.904Z,8.62
2022-11-05T07:48:00.842Z,8.71
2022-11-05T07:50:31.938Z,8.77
2022-11-05T07:53:15.681Z,8.81
2022-11-05T07:55:42.782Z,8.88
2022-11-05T07:58:09.882Z,8.92
2022-11-05T08:00:36.764Z,8.99
2022-11-05T08:03:08.157Z,9.01
2022-11-05T08:05:39.211Z,9.07
2022-11-05T08:08:08.036Z,9.11
2022-11-05T08:10:35.340Z,9.12
2022-11-05T08:13:02.266Z,9.16
2022-11-05T08:15:29.112Z,9.20
2022-11-05T08:18:04.369Z,9.28
2022-11-05T08:20:31.040Z,9.42
2022-11-05T08:22:58.012Z,9.39
2022-11-05T08:25:25.038Z,9.41
2022-11-05T08:28:00.317Z,9.51
2022-11-05T08:30:27.320Z,9.54
2022-11-05T08:32:59.783Z,9.61
2022-11-05T08:35:27.184Z,9.58
2022-11-05T08:38:02.760Z,9.75
2022-11-05T08:40:31.858Z,9.87
2022-11-05T08:42:59.631Z,10.07
2022-11-05T08:45:27.295Z,10.23
2022-11-05T08:48:01.423Z,10.25
2022-11-05T08:50:28.641Z,10.31
2022-11-05T08:52:55.201Z,10.45
2022-11-05T08:55:22.333Z,10.49
2022-11-05T08:57:54.565Z,10.60
2022-11-05T09:00:21.145Z,10.61
2022-11-05T09:02:47.634Z,10.54
2022-11-05T09:05:14.139Z,10.66
2022-11-05T09:07:40.633Z,10.71
2022-11-05T09:10:07.357Z,10.77
2022-11-05T09:12:33.898Z,10.76
2022-11-05T09:15:00.527Z,10.74
2022-11-05T09:17:27.128Z,10.56
2022-11-05T09:19:53.684Z,10.31
2022-11-05T09:22:20.152Z,10.38
2022-11-05T09:24:46.690Z,10.25
2022-11-05T09:27:14.587Z,10.22
2022-11-05T09:29:42.146Z,10.04
2022-11-05T09:32:09.259Z,9.82
2022-11-05T09:34:36.010Z,9.70
2022-11-05T09:37:02.675Z,9.56
2022-11-05T09:39:29.376Z,9.51
2022-11-05T09:42:01.935Z,9.59
2022-11-05T09:44:49.739Z,9.81
2022-11-05T09:47:26.311Z,10.27
2022-11-05T09:49:56.016Z,10.53
2022-11-05T09:52:29.491Z,10.48
2022-11-05T09:54:57.704Z,10.60
2022-11-05T09:57:49.028Z,10.83
2022-11-05T10:00:19.129Z,10.88
2022-11-05T10:02:53.300Z,10.98
2022-11-05T10:05:22.038Z,10.97
2022-11-05T10:07:53.496Z,10.82
2022-11-05T10:10:42.102Z,10.75
2022-11-05T10:13:31.945Z,10.73
2022-11-05T10:16:01.762Z,11.07
2022-11-05T10:18:34.137Z,11.18
2022-11-05T10:21:01.271Z,11.27
2022-11-05T10:23:28.378Z,11.60
2022-11-05T10:26:01.859Z,11.73
2022-11-05T10:28:30.723Z,11.75
2022-11-05T10:31:07.904Z,11.68
2022-11-05T10:34:00.986Z,11.77
2022-11-05T10:36:36.161Z,11.65
2022-11-05T10:39:18.044Z,11.53
2022-11-05T10:41:52.594Z,11.28
2022-11-05T10:44:56.624Z,11.35
2022-11-05T10:47:47.525Z,11.34
2022-11-05T10:50:25.020Z,11.04
2022-11-05T10:52:51.442Z,10.88
2022-11-05T10:55:36.372Z,10.91
2022-11-05T10:58:15.175Z,11.18
2022-11-05T11:00:44.577Z,11.44
2022-11-05T11:03:40.150Z,11.69
2022-11-05T11:06:18.289Z,11.80
2022-11-05T11:08:47.153Z,11.89
2022-11-05T11:11:45.184Z,12.16
2022-11-05T11:14:11.676Z,12.21
2022-11-05T11:16:40.411Z,12.33
2022-11-05T11:19:39.197Z,12.12
2022-11-05T11:22:05.603Z,12.10
2022-11-05T11:24:39.335Z,11.96
2022-11-05T11:27:11.230Z,11.90
2022-11-05T11:29:45.220Z,11.87
2022-11-05T11:32:18.742Z,11.90
2022-11-05T11:34:48.954Z,11.89
2022-11-05T11:37:22.095Z,11.99
2022-11-05T11:39:53.431Z,11.97
2022-11-05T11:42:30.884Z,11.95
2022-11-05T11:45:00.498Z,11.98
2022-11-05T11:47:29.008Z,12.03
2022-11-05T11:49:58.235Z,12.05
2022-11-05T11:52:32.487Z,11.99
2022-11-05T11:55:19.388Z,11.90
2022-11-05T11:57:51.561Z,11.85
2022-11-05T12:00:19.677Z,11.77
2022-11-05T12:03:04.566Z,11.71
2022-11-05T12:05:53.033Z,11.71
2022-11-05T12:08:45.381Z,11.76
2022-11-05T12:11:29.506Z,11.75
2022-11-05T12:14:13.489Z,11.73
2022-11-05T12:16:54.641Z,11.72
2022-11-05T12:20:01.171Z,11.71
2022-11-05T12:22:43.114Z,11.73
2022-11-05T12:25:45.284Z,11.75
2022-11-05T12:28:24.245Z,11.71
2022-11-05T12:31:06.016Z,11.73
2022-11-05T12:34:09.811Z,11.79
2022-11-05T12:36:55.920Z,11.65
2022-11-05T12:39:43.483Z,11.50
2022-11-05T12:42:20.486Z,11.57
2022-11-05T12:45:09.580Z,11.65
2022-11-05T12:47:50.755Z,11.75
2022-11-05T12:50:23.007Z,11.79
2022-11-05T12:53:15.234Z,11.82
2022-11-05T12:55:48.723Z,11.69
2022-11-05T12:58:22.944Z,11.65
2022-11-05T13:00:59.065Z,11.70
2022-11-05T13:03:31.694Z,11.72
2022-11-05T13:06:05.605Z,11.67
2022-11-05T13:08:49.104Z,11.65
2022-11-05T13:11:31.889Z,11.60
2022-11-05T13:14:21.503Z,11.57
2022-11-05T13:16:52.541Z,11.52
2022-11-05T13:19:31.016Z,11.50
2022-11-05T13:22:09.586Z,11.50
2022-11-05T13:24:48.088Z,11.57
2022-11-05T13:27:23.459Z,11.53
2022-11-05T13:29:59.596Z,11.45
2022-11-05T13:32:31.989Z,11.36
2022-11-05T13:35:01.790Z,11.33
2022-11-05T13:37:51.998Z,11.41
2022-11-05T13:40:24.849Z,11.43
2022-11-05T13:43:00.086Z,11.43
2022-11-05T13:45:51.346Z,11.34
2022-11-05T13:48:48.829Z,11.32
2022-11-05T13:51:27.636Z,11.34
2022-11-05T13:54:05.432Z,11.30
2022-11-05T13:56:53.042Z,11.25
2022-11-05T13:59:38.235Z,11.24
2022-11-05T14:02:16.355Z,11.30
2022-11-05T14:04:50.436Z,11.25
2022-11-05T14:07:25.543Z,11.14
2022-11-05T14:10:05.232Z,11.04
2022-11-05T14:12:35.991Z,11.00
2022-11-05T14:15:10.729Z,11.04
2022-11-05T14:17:59.571Z,11.02
2022-11-05T14:20:32.169Z,11.00
2022-11-05T14:23:17.350Z,10.96
2022-11-05T14:25:43.776Z,10.96
2022-11-05T14:28:34.821Z,10.95
2022-11-05T14:31:02.451Z,10.95
2022-11-05T14:33:28.881Z,10.92
2022-11-05T14:36:19.913Z,10.92
2022-11-05T14:38:52.080Z,10.87
2022-11-05T14:41:19.965Z,10.84
2022-11-05T14:44:07.378Z,10.78
2022-11-05T14:47:05.314Z,10.74
2022-11-05T14:49:49.202Z,10.73
2022-11-05T14:52:18.687Z,10.69
2022-11-05T14:54:50.410Z,10.62
2022-11-05T14:57:42.473Z,10.61
2022-11-05T15:00:40.629Z,10.55
2022-11-05T15:03:46.429Z,10.49
2022-11-05T15:06:35.178Z,10.44
2022-11-05T15:09:11.364Z,10.38
2022-11-05T15:11:41.010Z,10.40
2022-11-05T15:14:22.649Z,10.38
2022-11-05T15:16:53.374Z,10.33
2022-11-05T15:19:26.969Z,10.22
2022-11-05T15:21:56.644Z,10.18
2022-11-05T15:24:24.051Z,10.18
2022-11-05T15:27:19.045Z,10.15
2022-11-05T15:29:45.849Z,10.08
2022-11-05T15:32:18.392Z,10.02
2022-11-05T15:34:55.823Z,9.96
2022-11-05T15:37:26.122Z,9.89
2022-11-05T15:39:55.777Z,9.88
2022-11-05T15:42:27.626Z,9.92
2022-11-05T15:44:56.497Z,9.92
2022-11-05T15:47:24.036Z,9.89
2022-11-05T15:49:53.441Z,9.83
2022-11-05T15:52:23.525Z,9.77
2022-11-05T15:55:14.869Z,9.68
2022-11-05T15:57:51.052Z,9.64
2022-11-05T16:00:25.397Z,9.63
2022-11-05T16:03:03.012Z,9.67
2022-11-05T16:05:33.510Z,9.65
2022-11-05T16:08:00.980Z,9.62
2022-11-05T16:10:32.864Z,9.55
2022-11-05T16:13:30.222Z,9.49
2022-11-05T16:15:59.574Z,9.40
2022-11-05T16:18:32.373Z,9.32
2022-11-05T16:21:19.375Z,9.35
2022-11-05T16:23:48.858Z,9.35
2022-11-05T16:29:30.804Z,9.39
2022-11-05T16:31:59.962Z,9.40
2022-11-05T16:34:35.289Z,9.40
2022-11-05T16:37:02.902Z,9.38
2022-11-05T16:39:29.470Z,9.37
2022-11-05T16:41:55.936Z,9.37
2022-11-05T16:44:22.814Z,9.39
2022-11-05T16:46:50.093Z,9.40
2022-11-05T16:49:17.462Z,9.35
2022-11-05T16:51:44.287Z,9.35
2022-11-05T16:54:11.013Z,9.39
2022-11-05T16:56:42.403Z,9.41
2022-11-05T16:59:12.179Z,9.43
2022-11-05T17:01:41.952Z,9.41
2022-11-05T17:04:11.872Z,9.40
2022-11-05T17:06:38.392Z,9.40
2022-11-05T17:09:04.940Z,9.38
2022-11-05T17:11:31.407Z,9.37
2022-11-05T17:13:57.914Z,9.28
2022-11-05T17:16:24.407Z,9.30
2022-11-05T17:18:50.959Z,9.23
2022-11-05T17:21:17.643Z,9.18
2022-11-05T17:23:44.814Z,9.02
2022-11-05T17:26:12.431Z,8.94
2022-11-05T17:28:40.525Z,8.88
2022-11-05T17:31:09.697Z,8.86
2022-11-05T17:33:36.422Z,8.85
2022-11-05T17:36:08.684Z,8.84
2022-11-05T17:38:35.558Z,8.78
2022-11-05T17:41:02.394Z,8.89
2022-11-05T17:43:28.860Z,8.94
2022-11-05T17:45:59.962Z,8.96
2022-11-05T17:48:29.656Z,9.02
2022-11-05T17:50:57.018Z,9.00
2022-11-05T17:53:23.488Z,8.97
2022-11-05T17:55:50.045Z,8.99
2022-11-05T17:58:16.600Z,8.96
2022-11-05T18:00:44.254Z,8.97
2022-11-05T18:03:12.227Z,9.02
2022-11-05T18:05:40.077Z,9.04
2022-11-05T18:08:07.571Z,9.05
2022-11-05T18:10:37.645Z,8.99
2022-11-05T18:13:04.544Z,9.09
2022-11-05T18:15:31.028Z,9.18
2022-11-05T18:17:57.603Z,9.23
2022-11-05T18:20:24.250Z,9.27
2022-11-05T18:22:51.132Z,9.27
2022-11-05T18:25:18.427Z,9.26
2022-11-05T18:27:45.094Z,9.23
2022-11-05T18:30:15.327Z,9.22
2022-11-05T18:32:43.896Z,9.21
2022-11-05T18:35:11.004Z,9.16
2022-11-05T18:37:38.723Z,9.15
2022-11-05T18:40:06.239Z,9.15
2022-11-05T18:42:32.812Z,9.14
2022-11-05T18:45:01.762Z,9.15
2022-11-05T18:47:28.322Z,9.15
2022-11-05T18:49:54.793Z,9.20
2022-11-05T18:52:21.337Z,9.24
2022-11-05T18:54:47.898Z,9.21
2022-11-05T18:57:14.337Z,9.24
2022-11-05T18:59:42.178Z,9.25
2022-11-05T19:02:10.798Z,9.26
2022-11-05T19:04:37.768Z,9.33
2022-11-05T19:07:05.706Z,9.35
2022-11-05T19:09:36.426Z,9.36
2022-11-05T19:12:04.394Z,9.35
2022-11-05T19:14:31.411Z,9.35
2022-11-05T19:16:58.857Z,9.30
2022-11-05T19:19:25.906Z,9.29
2022-11-05T19:21:52.592Z,9.33
2022-11-05T19:24:19.046Z,9.35
2022-11-05T19:26:46.678Z,9.31
2022-11-05T19:29:13.181Z,9.30
2022-11-05T19:31:39.869Z,9.35
2022-11-05T19:34:06.453Z,9.33
2022-11-05T19:36:33.970Z,9.30
2022-11-05T19:39:03.577Z,9.31
2022-11-05T19:41:30.977Z,9.39
2022-11-05T19:44:01.731Z,9.42
2022-11-05T19:46:29.669Z,9.40
2022-11-05T19:48:56.781Z,9.37
2022-11-05T19:51:25.918Z,9.34
2022-11-05T19:53:53.452Z,9.33
2022-11-05T19:56:22.769Z,9.36
2022-11-05T19:58:49.816Z,9.36
2022-11-05T20:01:17.615Z,9.40
2022-11-05T20:03:44.839Z,9.43
2022-11-05T20:06:14.557Z,9.41
2022-11-05T20:08:59.814Z,9.41
2022-11-05T20:11:29.134Z,9.36
2022-11-05T20:13:56.417Z,9.35
2022-11-05T20:16:42.242Z,9.31
2022-11-05T20:19:14.836Z,9.31
2022-11-05T20:21:41.663Z,9.32
2022-11-05T20:24:08.417Z,9.32
2022-11-05T20:26:35.414Z,9.30
2022-11-05T20:29:02.011Z,9.33
2022-11-05T20:31:28.559Z,9.36
2022-11-05T20:33:55.304Z,9.39
2022-11-05T20:36:23.146Z,9.38
2022-11-05T20:38:55.331Z,9.37
2022-11-05T20:41:22.467Z,9.40
2022-11-05T20:43:49.042Z,9.42
2022-11-05T20:46:18.188Z,9.43
2022-11-05T20:48:45.466Z,9.41
2022-11-05T20:51:17.524Z,9.37
2022-11-05T20:53:44.330Z,9.35
2022-11-05T20:56:22.983Z,9.31
2022-11-05T20:58:50.306Z,9.28
2022-11-05T21:01:18.371Z,9.27
2022-11-05T21:03:45.990Z,9.30
2022-11-05T21:06:13.044Z,9.31
2022-11-05T21:08:39.962Z,9.29
2022-11-05T21:11:07.372Z,9.28
2022-11-05T21:13:34.717Z,9.26
2022-11-05T21:16:02.264Z,9.24
2022-11-05T21:18:33.135Z,9.24
2022-11-05T21:21:02.507Z,9.22
2022-11-05T21:23:29.071Z,9.21
2022-11-05T21:25:55.730Z,9.23
2022-11-05T21:28:22.458Z,9.23
2022-11-05T21:30:49.204Z,9.24
2022-11-05T21:33:18.484Z,9.23
2022-11-05T21:35:48.452Z,9.24
2022-11-05T21:38:16.800Z,9.21
2022-11-05T21:40:44.053Z,9.24
2022-11-05T21:43:12.644Z,9.23
2022-11-05T21:45:40.387Z,9.25
2022-11-05T21:48:07.680Z,9.28
2022-11-05T21:50:53.186Z,9.28
2022-11-05T21:53:39.028Z,9.25
2022-11-05T21:56:41.882Z,9.26
2022-11-05T21:59:32.697Z,9.26
2022-11-05T22:02:02.412Z,9.25
2022-11-05T22:04:30.583Z,9.27
2022-11-05T22:06:57.205Z,9.26
2022-11-05T22:09:24.696Z,9.24
2022-11-05T22:11:51.390Z,9.23
2022-11-05T22:14:18.003Z,9.22
2022-11-05T22:16:44.500Z,9.16
2022-11-05T22:19:11.163Z,9.16
2022-11-05T22:21:38.151Z,9.20
2022-11-05T22:24:05.393Z,9.21
2022-11-05T22:26:31.895Z,9.19
2022-11-05T22:28:58.462Z,9.18
2022-11-05T22:31:24.960Z,9.18
2022-11-05T22:33:51.479Z,9.18
2022-11-05T22:36:18.494Z,9.14
2022-11-05T22:38:45.157Z,9.08
2022-11-05T22:41:14.802Z,9.08
2022-11-05T22:43:41.779Z,9.04
2022-11-05T22:46:14.493Z,9.00
2022-11-05T22:48:44.747Z,8.95
2022-11-05T22:51:15.095Z,8.98
2022-11-05T22:53:42.126Z,9.00
2022-11-05T22:56:11.700Z,9.01
2022-11-05T22:58:38.596Z,8.99
2022-11-05T23:01:11.714Z,8.94
2022-11-05T23:03:40.024Z,8.97
2022-11-05T23:06:31.577Z,8.96
2022-11-05T23:09:31.560Z,9.00
2022-11-05T23:11:58.846Z,8.95
2022-11-05T23:14:25.356Z,8.96
2022-11-05T23:17:10.545Z,8.93
2022-11-05T23:19:55.829Z,8.87
2022-11-05T23:22:47.698Z,8.85
2022-11-05T23:25:17.337Z,8.82
2022-11-05T23:27:50.963Z,8.84
2022-11-05T23:30:20.969Z,8.84
2022-11-05T23:32:48.163Z,8.84
2022-11-05T23:35:15.757Z,8.80
2022-11-05T23:38:01.080Z,8.71
2022-11-05T23:40:51.860Z,8.71
2022-11-05T23:43:36.841Z,8.66
2022-11-05T23:46:26.173Z,8.66
2022-11-05T23:48:52.617Z,8.62
2022-11-05T23:51:19.111Z,8.61
2022-11-05T23:53:45.565Z,8.70
2022-11-05T23:56:14.525Z,8.74
2022-11-05T23:58:42.386Z,8.75
